Silver Fork, California
Current Conditions -  °F | °C
As of 4:53 PM on Saturday 20 Dec 2014 (Local Time) from KTVL Reporting Station
Overcast Overcast  
Wind Chill: 35°   Ceiling: 4100
Heat Index: 40°   Visibility: 10mi
Dew Point: 33°   Wind: 7mph
Humidity: 77%   Direction: 200°SSW
Pressure: 30.19"   Gusts: 16mph
Location:  38.7639°N, 120.248°W
Report Text: KTVL 210053Z AUTO 20006G14KT 10SM BKN041 BKN049 OVC070 04/01 A3019 RMK AO2 SLP212 T00440006
Loading
Personal Weather Stations






























Interactive Weather Map New forecast layout! Learn more

10-Day Weather Forecast

Advertisements
Track Severe Weather on mobile